sensor_id;sensor_type;location;lat;lon;timestamp;temperature;humidity
23683;DHT22;24897;53.514;10.482;2023-05-10T00:01:48;14.40;99.90
23683;DHT22;24897;53.514;10.482;2023-05-10T00:04:32;14.40;99.90
23683;DHT22;24897;53.514;10.482;2023-05-10T00:07:16;14.30;99.90
23683;DHT22;24897;53.514;10.482;2023-05-10T00:10:01;14.30;99.90
23683;DHT22;24897;53.514;10.482;2023-05-10T00:12:45;14.30;99.90
23683;DHT22;24897;53.514;10.482;2023-05-10T00:15:30;14.20;99.90
23683;DHT22;24897;53.514;10.482;2023-05-10T00:18:14;14.20;99.90
23683;DHT22;24897;53.514;10.482;2023-05-10T00:20:59;14.10;99.90
23683;DHT22;24897;53.514;10.482;2023-05-10T00:23:43;14.10;99.90
23683;DHT22;24897;53.514;10.482;2023-05-10T00:26:27;14.10;99.90
23683;DHT22;24897;53.514;10.482;2023-05-10T00:29:11;14.00;99.90
23683;DHT22;24897;53.514;10.482;2023-05-10T00:32:02;14.00;99.90
23683;DHT22;24897;53.514;10.482;2023-05-10T00:34:46;13.90;99.90
23683;DHT22;24897;53.514;10.482;2023-05-10T00:37:30;13.90;99.90
23683;DHT22;24897;53.514;10.482;2023-05-10T00:40:15;13.90;99.90
23683;DHT22;24897;53.514;10.482;2023-05-10T00:42:59;13.90;99.90
23683;DHT22;24897;53.514;10.482;2023-05-10T00:45:44;13.90;99.90
23683;DHT22;24897;53.514;10.482;2023-05-10T00:48:29;13.80;99.90
23683;DHT22;24897;53.514;10.482;2023-05-10T00:51:14;13.80;99.90
23683;DHT22;24897;53.514;10.482;2023-05-10T00:53:58;13.80;99.90
23683;DHT22;24897;53.514;10.482;2023-05-10T00:56:43;13.80;99.90
23683;DHT22;24897;53.514;10.482;2023-05-10T00:59:33;13.80;99.90
23683;DHT22;24897;53.514;10.482;2023-05-10T01:02:17;13.70;99.90
23683;DHT22;24897;53.514;10.482;2023-05-10T01:05:02;13.70;99.90
23683;DHT22;24897;53.514;10.482;2023-05-10T01:07:50;13.60;99.90
23683;DHT22;24897;53.514;10.482;2023-05-10T01:10:34;13.60;99.90
23683;DHT22;24897;53.514;10.482;2023-05-10T01:16:13;13.60;99.90
23683;DHT22;24897;53.514;10.482;2023-05-10T01:18:58;13.50;99.90
23683;DHT22;24897;53.514;10.482;2023-05-10T01:21:57;13.50;99.90
23683;DHT22;24897;53.514;10.482;2023-05-10T01:34:07;13.40;99.90
23683;DHT22;24897;53.514;10.482;2023-05-10T01:37:07;13.40;99.90
23683;DHT22;24897;53.514;10.482;2023-05-10T01:40:19;13.30;99.90
23683;DHT22;24897;53.514;10.482;2023-05-10T01:43:08;13.30;99.90
23683;DHT22;24897;53.514;10.482;2023-05-10T01:46:03;13.30;99.90
23683;DHT22;24897;53.514;10.482;2023-05-10T01:48:56;13.30;99.90
23683;DHT22;24897;53.514;10.482;2023-05-10T01:51:49;13.30;99.90
23683;DHT22;24897;53.514;10.482;2023-05-10T01:54:38;13.20;99.90
23683;DHT22;24897;53.514;10.482;2023-05-10T01:57:26;13.20;99.90
23683;DHT22;24897;53.514;10.482;2023-05-10T02:00:12;13.20;99.90
23683;DHT22;24897;53.514;10.482;2023-05-10T02:02:57;13.20;99.90
23683;DHT22;24897;53.514;10.482;2023-05-10T02:05:46;13.10;99.90
23683;DHT22;24897;53.514;10.482;2023-05-10T02:08:33;13.10;99.90
23683;DHT22;24897;53.514;10.482;2023-05-10T02:11:19;13.10;99.90
23683;DHT22;24897;53.514;10.482;2023-05-10T02:14:08;13.10;99.90
23683;DHT22;24897;53.514;10.482;2023-05-10T02:16:54;13.10;99.90
23683;DHT22;24897;53.514;10.482;2023-05-10T02:19:41;13.00;99.90
23683;DHT22;24897;53.514;10.482;2023-05-10T02:22:27;13.00;99.90
23683;DHT22;24897;53.514;10.482;2023-05-10T02:25:13;13.00;99.90
23683;DHT22;24897;53.514;10.482;2023-05-10T02:27:58;12.90;99.90
23683;DHT22;24897;53.514;10.482;2023-05-10T02:30:47;12.90;99.90
23683;DHT22;24897;53.514;10.482;2023-05-10T02:33:31;12.90;99.90
23683;DHT22;24897;53.514;10.482;2023-05-10T02:36:16;12.90;99.90
23683;DHT22;24897;53.514;10.482;2023-05-10T02:39:02;12.80;99.90
23683;DHT22;24897;53.514;10.482;2023-05-10T02:41:47;12.80;99.90
23683;DHT22;24897;53.514;10.482;2023-05-10T02:44:33;12.80;99.90
23683;DHT22;24897;53.514;10.482;2023-05-10T02:47:20;12.80;99.90
23683;DHT22;24897;53.514;10.482;2023-05-10T02:50:06;12.70;99.90
23683;DHT22;24897;53.514;10.482;2023-05-10T02:52:51;12.70;99.90
23683;DHT22;24897;53.514;10.482;2023-05-10T02:55:40;12.70;99.90
23683;DHT22;24897;53.514;10.482;2023-05-10T02:58:26;12.70;99.90
23683;DHT22;24897;53.514;10.482;2023-05-10T03:01:10;12.60;99.90
23683;DHT22;24897;53.514;10.482;2023-05-10T03:03:54;12.60;99.90
23683;DHT22;24897;53.514;10.482;2023-05-10T03:06:39;12.50;99.90
23683;DHT22;24897;53.514;10.482;2023-05-10T03:09:23;12.50;99.90
23683;DHT22;24897;53.514;10.482;2023-05-10T03:18:41;12.40;99.90
23683;DHT22;24897;53.514;10.482;2023-05-10T03:21:29;12.40;99.90
23683;DHT22;24897;53.514;10.482;2023-05-10T03:24:16;12.40;99.90
23683;DHT22;24897;53.514;10.482;2023-05-10T03:27:03;12.30;99.90
23683;DHT22;24897;53.514;10.482;2023-05-10T03:29:48;12.40;99.90
23683;DHT22;24897;53.514;10.482;2023-05-10T03:32:35;12.40;99.90
23683;DHT22;24897;53.514;10.482;2023-05-10T03:35:19;12.40;99.90
23683;DHT22;24897;53.514;10.482;2023-05-10T03:38:03;12.40;99.90
23683;DHT22;24897;53.514;10.482;2023-05-10T03:40:48;12.30;99.90
23683;DHT22;24897;53.514;10.482;2023-05-10T03:43:32;12.30;99.90
23683;DHT22;24897;53.514;10.482;2023-05-10T03:46:16;12.40;99.90
23683;DHT22;24897;53.514;10.482;2023-05-10T03:49:00;12.40;99.90
23683;DHT22;24897;53.514;10.482;2023-05-10T03:51:44;12.50;99.90
23683;DHT22;24897;53.514;10.482;2023-05-10T03:54:28;12.70;99.90
23683;DHT22;24897;53.514;10.482;2023-05-10T03:57:12;12.80;99.90
23683;DHT22;24897;53.514;10.482;2023-05-10T03:59:56;12.90;99.90
23683;DHT22;24897;53.514;10.482;2023-05-10T04:02:41;13.10;99.90
23683;DHT22;24897;53.514;10.482;2023-05-10T04:05:25;13.20;99.90
23683;DHT22;24897;53.514;10.482;2023-05-10T04:08:10;13.50;99.90
23683;DHT22;24897;53.514;10.482;2023-05-10T04:10:54;13.50;99.90
23683;DHT22;24897;53.514;10.482;2023-05-10T04:13:38;13.60;99.90
23683;DHT22;24897;53.514;10.482;2023-05-10T04:16:22;13.80;99.90
23683;DHT22;24897;53.514;10.482;2023-05-10T04:19:06;14.00;99.90
23683;DHT22;24897;53.514;10.482;2023-05-10T04:21:51;14.10;99.90
23683;DHT22;24897;53.514;10.482;2023-05-10T04:24:35;14.20;99.90
23683;DHT22;24897;53.514;10.482;2023-05-10T04:27:19;14.40;99.90
23683;DHT22;24897;53.514;10.482;2023-05-10T04:30:04;14.40;99.90
23683;DHT22;24897;53.514;10.482;2023-05-10T04:32:48;14.50;99.90
23683;DHT22;24897;53.514;10.482;2023-05-10T04:35:34;14.80;99.90
23683;DHT22;24897;53.514;10.482;2023-05-10T04:38:18;14.90;99.90
23683;DHT22;24897;53.514;10.482;2023-05-10T04:41:07;14.90;99.90
23683;DHT22;24897;53.514;10.482;2023-05-10T04:43:51;14.90;99.90
23683;DHT22;24897;53.514;10.482;2023-05-10T04:46:35;15.00;99.90
23683;DHT22;24897;53.514;10.482;2023-05-10T04:49:20;15.30;99.90
23683;DHT22;24897;53.514;10.482;2023-05-10T04:52:04;15.30;99.90
23683;DHT22;24897;53.514;10.482;2023-05-10T04:54:48;15.40;99.90
23683;DHT22;24897;53.514;10.482;2023-05-10T04:57:36;15.20;99.90
23683;DHT22;24897;53.514;10.482;2023-05-10T05:00:20;14.90;99.90
23683;DHT22;24897;53.514;10.482;2023-05-10T05:03:05;14.60;99.90
23683;DHT22;24897;53.514;10.482;2023-05-10T05:05:50;14.40;99.90
23683;DHT22;24897;53.514;10.482;2023-05-10T05:08:34;14.40;99.90
23683;DHT22;24897;53.514;10.482;2023-05-10T05:11:18;14.60;99.90
23683;DHT22;24897;53.514;10.482;2023-05-10T05:14:02;14.70;99.90
23683;DHT22;24897;53.514;10.482;2023-05-10T05:16:46;15.20;99.90
23683;DHT22;24897;53.514;10.482;2023-05-10T05:19:31;15.30;99.90
23683;DHT22;24897;53.514;10.482;2023-05-10T05:22:15;15.70;99.90
23683;DHT22;24897;53.514;10.482;2023-05-10T05:24:59;15.90;99.90
23683;DHT22;24897;53.514;10.482;2023-05-10T05:27:44;16.30;99.90
23683;DHT22;24897;53.514;10.482;2023-05-10T05:30:28;16.80;99.90
23683;DHT22;24897;53.514;10.482;2023-05-10T05:33:16;17.10;99.90
23683;DHT22;24897;53.514;10.482;2023-05-10T05:36:06;17.10;99.90
23683;DHT22;24897;53.514;10.482;2023-05-10T05:38:51;17.00;99.90
23683;DHT22;24897;53.514;10.482;2023-05-10T05:41:35;16.80;99.90
23683;DHT22;24897;53.514;10.482;2023-05-10T05:44:19;16.90;99.90
23683;DHT22;24897;53.514;10.482;2023-05-10T05:47:03;17.50;99.90
23683;DHT22;24897;53.514;10.482;2023-05-10T05:49:47;17.90;99.90
23683;DHT22;24897;53.514;10.482;2023-05-10T05:52:32;17.90;99.90
23683;DHT22;24897;53.514;10.482;2023-05-10T05:55:16;18.20;99.90
23683;DHT22;24897;53.514;10.482;2023-05-10T05:58:01;18.50;99.90
23683;DHT22;24897;53.514;10.482;2023-05-10T06:00:45;18.90;99.90
23683;DHT22;24897;53.514;10.482;2023-05-10T06:03:30;19.70;99.90
23683;DHT22;24897;53.514;10.482;2023-05-10T06:06:14;20.00;99.90
23683;DHT22;24897;53.514;10.482;2023-05-10T06:08:58;20.20;99.90
23683;DHT22;24897;53.514;10.482;2023-05-10T06:11:42;20.10;99.90
23683;DHT22;24897;53.514;10.482;2023-05-10T06:14:26;19.80;99.90
23683;DHT22;24897;53.514;10.482;2023-05-10T06:17:11;19.90;99.90
23683;DHT22;24897;53.514;10.482;2023-05-10T06:19:55;19.60;99.90
23683;DHT22;24897;53.514;10.482;2023-05-10T06:22:40;20.10;99.90
23683;DHT22;24897;53.514;10.482;2023-05-10T06:25:24;20.50;99.90
23683;DHT22;24897;53.514;10.482;2023-05-10T06:28:09;20.10;99.90
23683;DHT22;24897;53.514;10.482;2023-05-10T06:30:53;19.20;99.90
23683;DHT22;24897;53.514;10.482;2023-05-10T06:33:37;18.30;99.90
23683;DHT22;24897;53.514;10.482;2023-05-10T06:36:21;17.70;99.90
23683;DHT22;24897;53.514;10.482;2023-05-10T06:39:06;17.40;99.90
23683;DHT22;24897;53.514;10.482;2023-05-10T06:41:50;17.20;99.90
23683;DHT22;24897;53.514;10.482;2023-05-10T06:44:34;17.30;99.90
23683;DHT22;24897;53.514;10.482;2023-05-10T06:47:18;17.40;99.90
23683;DHT22;24897;53.514;10.482;2023-05-10T06:50:03;17.50;99.90
23683;DHT22;24897;53.514;10.482;2023-05-10T06:52:47;17.60;99.90
23683;DHT22;24897;53.514;10.482;2023-05-10T06:55:32;18.00;99.90
23683;DHT22;24897;53.514;10.482;2023-05-10T06:58:16;18.20;99.90
23683;DHT22;24897;53.514;10.482;2023-05-10T07:01:04;18.30;99.90
23683;DHT22;24897;53.514;10.482;2023-05-10T07:03:49;18.40;99.90
23683;DHT22;24897;53.514;10.482;2023-05-10T07:06:33;18.50;99.90
23683;DHT22;24897;53.514;10.482;2023-05-10T07:09:17;18.50;99.90
23683;DHT22;24897;53.514;10.482;2023-05-10T07:12:02;18.70;99.90
23683;DHT22;24897;53.514;10.482;2023-05-10T07:14:46;19.00;99.90
23683;DHT22;24897;53.514;10.482;2023-05-10T07:17:30;18.80;99.90
23683;DHT22;24897;53.514;10.482;2023-05-10T07:20:15;18.70;99.90
23683;DHT22;24897;53.514;10.482;2023-05-10T07:22:59;18.80;99.90
23683;DHT22;24897;53.514;10.482;2023-05-10T07:25:47;18.90;99.90
23683;DHT22;24897;53.514;10.482;2023-05-10T07:28:31;18.90;99.90
23683;DHT22;24897;53.514;10.482;2023-05-10T07:31:16;18.90;99.90
23683;DHT22;24897;53.514;10.482;2023-05-10T07:34:00;18.50;99.90
23683;DHT22;24897;53.514;10.482;2023-05-10T07:36:44;18.20;99.90
23683;DHT22;24897;53.514;10.482;2023-05-10T07:39:30;18.00;99.90
23683;DHT22;24897;53.514;10.482;2023-05-10T07:42:20;18.30;99.90
23683;DHT22;24897;53.514;10.482;2023-05-10T07:45:05;18.50;99.90
23683;DHT22;24897;53.514;10.482;2023-05-10T07:47:50;18.60;99.90
23683;DHT22;24897;53.514;10.482;2023-05-10T07:50:37;18.70;99.90
23683;DHT22;24897;53.514;10.482;2023-05-10T07:53:25;18.30;99.90
23683;DHT22;24897;53.514;10.482;2023-05-10T07:56:30;18.00;99.90
23683;DHT22;24897;53.514;10.482;2023-05-10T07:59:16;18.00;99.90
23683;DHT22;24897;53.514;10.482;2023-05-10T08:02:00;18.30;99.90
23683;DHT22;24897;53.514;10.482;2023-05-10T08:04:47;18.40;99.90
23683;DHT22;24897;53.514;10.482;2023-05-10T08:07:32;18.50;99.90
23683;DHT22;24897;53.514;10.482;2023-05-10T08:10:16;18.60;99.90
23683;DHT22;24897;53.514;10.482;2023-05-10T08:13:00;18.70;99.90
23683;DHT22;24897;53.514;10.482;2023-05-10T08:15:44;18.80;99.90
23683;DHT22;24897;53.514;10.482;2023-05-10T08:18:28;19.00;99.90
23683;DHT22;24897;53.514;10.482;2023-05-10T08:21:13;19.40;99.90
23683;DHT22;24897;53.514;10.482;2023-05-10T08:23:58;19.80;99.90
23683;DHT22;24897;53.514;10.482;2023-05-10T08:26:42;20.20;99.90
23683;DHT22;24897;53.514;10.482;2023-05-10T08:29:26;20.20;99.90
23683;DHT22;24897;53.514;10.482;2023-05-10T08:32:10;20.40;99.90
23683;DHT22;24897;53.514;10.482;2023-05-10T08:34:55;20.60;99.90
23683;DHT22;24897;53.514;10.482;2023-05-10T08:37:40;20.70;99.90
23683;DHT22;24897;53.514;10.482;2023-05-10T08:40:24;21.00;99.90
23683;DHT22;24897;53.514;10.482;2023-05-10T08:43:12;21.50;99.90
23683;DHT22;24897;53.514;10.482;2023-05-10T08:46:04;22.00;99.90
23683;DHT22;24897;53.514;10.482;2023-05-10T08:48:50;22.00;99.90
23683;DHT22;24897;53.514;10.482;2023-05-10T08:51:40;21.90;99.90
23683;DHT22;24897;53.514;10.482;2023-05-10T08:54:27;21.90;99.90
23683;DHT22;24897;53.514;10.482;2023-05-10T08:57:12;22.10;99.90
23683;DHT22;24897;53.514;10.482;2023-05-10T08:59:56;22.30;99.90
23683;DHT22;24897;53.514;10.482;2023-05-10T09:02:41;22.30;99.90
23683;DHT22;24897;53.514;10.482;2023-05-10T09:05:27;22.30;99.90
23683;DHT22;24897;53.514;10.482;2023-05-10T09:08:11;22.30;99.90
23683;DHT22;24897;53.514;10.482;2023-05-10T09:10:57;22.10;99.90
23683;DHT22;24897;53.514;10.482;2023-05-10T09:13:42;21.90;99.90
23683;DHT22;24897;53.514;10.482;2023-05-10T09:16:27;21.60;99.90
23683;DHT22;24897;53.514;10.482;2023-05-10T09:19:14;21.40;99.90
23683;DHT22;24897;53.514;10.482;2023-05-10T09:21:58;21.50;99.90
23683;DHT22;24897;53.514;10.482;2023-05-10T09:24:44;21.50;99.90
23683;DHT22;24897;53.514;10.482;2023-05-10T09:27:29;21.40;99.90
23683;DHT22;24897;53.514;10.482;2023-05-10T09:30:29;21.00;99.90
23683;DHT22;24897;53.514;10.482;2023-05-10T09:33:14;20.30;99.90
23683;DHT22;24897;53.514;10.482;2023-05-10T09:36:08;19.90;99.90
23683;DHT22;24897;53.514;10.482;2023-05-10T09:38:52;19.60;99.90
23683;DHT22;24897;53.514;10.482;2023-05-10T09:41:36;19.50;99.90
23683;DHT22;24897;53.514;10.482;2023-05-10T09:44:20;19.50;99.90
23683;DHT22;24897;53.514;10.482;2023-05-10T09:47:06;19.60;99.90
23683;DHT22;24897;53.514;10.482;2023-05-10T09:49:50;19.50;99.90
23683;DHT22;24897;53.514;10.482;2023-05-10T09:58:20;19.40;99.90
23683;DHT22;24897;53.514;10.482;2023-05-10T10:01:04;19.50;99.90
23683;DHT22;24897;53.514;10.482;2023-05-10T10:03:49;19.50;99.90
23683;DHT22;24897;53.514;10.482;2023-05-10T10:06:37;19.40;99.90
23683;DHT22;24897;53.514;10.482;2023-05-10T10:09:22;19.30;99.90
23683;DHT22;24897;53.514;10.482;2023-05-10T10:12:06;19.30;99.90
23683;DHT22;24897;53.514;10.482;2023-05-10T10:14:51;19.30;99.90
23683;DHT22;24897;53.514;10.482;2023-05-10T10:17:36;19.40;99.90
23683;DHT22;24897;53.514;10.482;2023-05-10T10:20:22;19.70;99.90
23683;DHT22;24897;53.514;10.482;2023-05-10T10:23:08;19.60;99.90
23683;DHT22;24897;53.514;10.482;2023-05-10T10:25:53;19.40;99.90
23683;DHT22;24897;53.514;10.482;2023-05-10T10:31:34;19.10;99.90
23683;DHT22;24897;53.514;10.482;2023-05-10T10:34:28;18.90;99.90
23683;DHT22;24897;53.514;10.482;2023-05-10T10:37:12;18.60;99.90
23683;DHT22;24897;53.514;10.482;2023-05-10T10:39:56;18.50;99.90
23683;DHT22;24897;53.514;10.482;2023-05-10T10:42:44;18.40;99.90
23683;DHT22;24897;53.514;10.482;2023-05-10T10:45:29;18.20;99.90
23683;DHT22;24897;53.514;10.482;2023-05-10T10:48:23;18.00;99.90
23683;DHT22;24897;53.514;10.482;2023-05-10T10:51:07;17.60;99.90
23683;DHT22;24897;53.514;10.482;2023-05-10T10:53:54;17.40;99.90
23683;DHT22;24897;53.514;10.482;2023-05-10T10:56:38;17.40;99.90
23683;DHT22;24897;53.514;10.482;2023-05-10T10:59:28;17.30;99.90
23683;DHT22;24897;53.514;10.482;2023-05-10T11:02:42;17.00;99.90
23683;DHT22;24897;53.514;10.482;2023-05-10T11:11:14;16.80;99.90
23683;DHT22;24897;53.514;10.482;2023-05-10T11:14:03;16.50;99.90
23683;DHT22;24897;53.514;10.482;2023-05-10T11:16:49;16.20;99.90
23683;DHT22;24897;53.514;10.482;2023-05-10T11:19:33;16.10;99.90
23683;DHT22;24897;53.514;10.482;2023-05-10T11:22:17;16.00;99.90
23683;DHT22;24897;53.514;10.482;2023-05-10T11:25:02;15.80;99.90
23683;DHT22;24897;53.514;10.482;2023-05-10T11:27:48;15.70;99.90
23683;DHT22;24897;53.514;10.482;2023-05-10T11:30:31;15.50;99.90
23683;DHT22;24897;53.514;10.482;2023-05-10T11:33:19;15.40;99.90
23683;DHT22;24897;53.514;10.482;2023-05-10T11:36:04;15.70;99.90
23683;DHT22;24897;53.514;10.482;2023-05-10T11:38:49;15.50;99.90
23683;DHT22;24897;53.514;10.482;2023-05-10T11:41:33;15.30;99.90
23683;DHT22;24897;53.514;10.482;2023-05-10T11:44:18;15.20;99.90
23683;DHT22;24897;53.514;10.482;2023-05-10T11:47:02;15.30;99.90
23683;DHT22;24897;53.514;10.482;2023-05-10T11:49:48;15.40;99.90
23683;DHT22;24897;53.514;10.482;2023-05-10T11:52:36;15.50;99.90
23683;DHT22;24897;53.514;10.482;2023-05-10T11:55:22;15.40;99.90
23683;DHT22;24897;53.514;10.482;2023-05-10T11:58:06;15.50;99.90
23683;DHT22;24897;53.514;10.482;2023-05-10T12:00:50;15.40;99.90
23683;DHT22;24897;53.514;10.482;2023-05-10T12:03:35;15.20;99.90
23683;DHT22;24897;53.514;10.482;2023-05-10T12:06:20;15.30;99.90
23683;DHT22;24897;53.514;10.482;2023-05-10T12:09:08;15.40;99.90
23683;DHT22;24897;53.514;10.482;2023-05-10T12:11:55;15.60;99.90
23683;DHT22;24897;53.514;10.482;2023-05-10T12:14:41;15.60;99.90
23683;DHT22;24897;53.514;10.482;2023-05-10T12:17:27;15.80;99.90
23683;DHT22;24897;53.514;10.482;2023-05-10T12:20:14;15.70;99.90
23683;DHT22;24897;53.514;10.482;2023-05-10T12:22:58;15.60;99.90
23683;DHT22;24897;53.514;10.482;2023-05-10T12:25:46;15.80;99.90
23683;DHT22;24897;53.514;10.482;2023-05-10T12:28:31;15.90;99.90
23683;DHT22;24897;53.514;10.482;2023-05-10T12:31:15;16.00;99.90
23683;DHT22;24897;53.514;10.482;2023-05-10T12:33:59;15.90;99.90
23683;DHT22;24897;53.514;10.482;2023-05-10T12:36:43;16.00;99.90
23683;DHT22;24897;53.514;10.482;2023-05-10T12:39:42;16.30;99.90
23683;DHT22;24897;53.514;10.482;2023-05-10T12:42:27;16.40;99.90
23683;DHT22;24897;53.514;10.482;2023-05-10T12:45:11;16.40;99.90
23683;DHT22;24897;53.514;10.482;2023-05-10T12:47:56;16.30;99.90
23683;DHT22;24897;53.514;10.482;2023-05-10T12:50:40;16.20;99.90
23683;DHT22;24897;53.514;10.482;2023-05-10T12:53:24;16.00;99.90
23683;DHT22;24897;53.514;10.482;2023-05-10T12:56:08;15.80;99.90
23683;DHT22;24897;53.514;10.482;2023-05-10T12:58:53;15.90;99.90
23683;DHT22;24897;53.514;10.482;2023-05-10T13:01:37;15.90;99.90
23683;DHT22;24897;53.514;10.482;2023-05-10T13:04:21;16.00;99.90
23683;DHT22;24897;53.514;10.482;2023-05-10T13:07:06;16.10;99.90
23683;DHT22;24897;53.514;10.482;2023-05-10T13:09:50;15.90;99.90
23683;DHT22;24897;53.514;10.482;2023-05-10T13:12:35;15.90;99.90
23683;DHT22;24897;53.514;10.482;2023-05-10T13:15:19;16.10;99.90
23683;DHT22;24897;53.514;10.482;2023-05-10T13:18:03;16.10;99.90
23683;DHT22;24897;53.514;10.482;2023-05-10T13:20:47;16.20;99.90
23683;DHT22;24897;53.514;10.482;2023-05-10T13:23:34;16.20;99.90
23683;DHT22;24897;53.514;10.482;2023-05-10T13:26:19;16.20;99.90
23683;DHT22;24897;53.514;10.482;2023-05-10T13:29:04;16.20;99.90
23683;DHT22;24897;53.514;10.482;2023-05-10T13:31:48;16.30;99.90
23683;DHT22;24897;53.514;10.482;2023-05-10T13:34:32;16.40;99.90
23683;DHT22;24897;53.514;10.482;2023-05-10T13:37:16;16.40;99.90
23683;DHT22;24897;53.514;10.482;2023-05-10T13:40:01;16.60;99.90
23683;DHT22;24897;53.514;10.482;2023-05-10T13:42:45;16.60;99.90
23683;DHT22;24897;53.514;10.482;2023-05-10T13:45:29;16.70;99.90
23683;DHT22;24897;53.514;10.482;2023-05-10T13:48:13;16.70;99.90
23683;DHT22;24897;53.514;10.482;2023-05-10T13:50:58;16.80;99.90
23683;DHT22;24897;53.514;10.482;2023-05-10T13:53:42;17.00;99.90
23683;DHT22;24897;53.514;10.482;2023-05-10T13:56:26;17.20;99.90
23683;DHT22;24897;53.514;10.482;2023-05-10T13:59:11;17.40;99.90
23683;DHT22;24897;53.514;10.482;2023-05-10T14:01:55;17.50;99.90
23683;DHT22;24897;53.514;10.482;2023-05-10T14:04:39;17.50;99.90
23683;DHT22;24897;53.514;10.482;2023-05-10T14:07:23;17.70;99.90
23683;DHT22;24897;53.514;10.482;2023-05-10T14:10:08;17.70;99.90
23683;DHT22;24897;53.514;10.482;2023-05-10T14:12:52;17.90;99.90
23683;DHT22;24897;53.514;10.482;2023-05-10T14:15:36;18.20;99.90
23683;DHT22;24897;53.514;10.482;2023-05-10T14:18:20;18.10;99.90
23683;DHT22;24897;53.514;10.482;2023-05-10T14:21:05;17.80;99.90
23683;DHT22;24897;53.514;10.482;2023-05-10T14:23:49;17.80;99.90
23683;DHT22;24897;53.514;10.482;2023-05-10T14:26:33;18.00;99.90
23683;DHT22;24897;53.514;10.482;2023-05-10T14:29:21;18.10;99.90
23683;DHT22;24897;53.514;10.482;2023-05-10T14:32:05;18.10;99.90
23683;DHT22;24897;53.514;10.482;2023-05-10T14:34:50;18.30;99.90
23683;DHT22;24897;53.514;10.482;2023-05-10T14:37:34;18.50;99.90
23683;DHT22;24897;53.514;10.482;2023-05-10T14:40:18;18.50;99.90
23683;DHT22;24897;53.514;10.482;2023-05-10T14:43:03;18.50;99.90
23683;DHT22;24897;53.514;10.482;2023-05-10T14:45:47;18.80;99.90
23683;DHT22;24897;53.514;10.482;2023-05-10T14:48:31;18.80;99.90
23683;DHT22;24897;53.514;10.482;2023-05-10T14:51:15;18.90;99.90
23683;DHT22;24897;53.514;10.482;2023-05-10T14:53:59;19.20;99.90
23683;DHT22;24897;53.514;10.482;2023-05-10T14:56:44;19.30;99.90
23683;DHT22;24897;53.514;10.482;2023-05-10T14:59:28;19.20;99.90
23683;DHT22;24897;53.514;10.482;2023-05-10T15:02:13;18.90;99.90
23683;DHT22;24897;53.514;10.482;2023-05-10T15:04:57;18.50;99.90
23683;DHT22;24897;53.514;10.482;2023-05-10T15:07:42;18.60;99.90
23683;DHT22;24897;53.514;10.482;2023-05-10T15:10:27;18.60;99.90
23683;DHT22;24897;53.514;10.482;2023-05-10T15:13:11;18.70;99.90
23683;DHT22;24897;53.514;10.482;2023-05-10T15:15:55;18.70;99.90
23683;DHT22;24897;53.514;10.482;2023-05-10T15:18:39;18.60;99.90
23683;DHT22;24897;53.514;10.482;2023-05-10T15:21:23;18.60;99.90
23683;DHT22;24897;53.514;10.482;2023-05-10T15:24:08;18.60;99.90
23683;DHT22;24897;53.514;10.482;2023-05-10T15:26:52;18.70;99.90
23683;DHT22;24897;53.514;10.482;2023-05-10T15:29:37;18.70;99.90
23683;DHT22;24897;53.514;10.482;2023-05-10T15:32:21;18.60;99.90
23683;DHT22;24897;53.514;10.482;2023-05-10T15:35:06;18.70;99.90
23683;DHT22;24897;53.514;10.482;2023-05-10T15:37:50;18.60;99.90
23683;DHT22;24897;53.514;10.482;2023-05-10T15:40:34;18.60;99.90
23683;DHT22;24897;53.514;10.482;2023-05-10T15:43:18;18.60;99.90
23683;DHT22;24897;53.514;10.482;2023-05-10T15:46:02;18.50;99.90
23683;DHT22;24897;53.514;10.482;2023-05-10T15:48:46;18.60;99.90
23683;DHT22;24897;53.514;10.482;2023-05-10T15:51:31;18.70;99.90
23683;DHT22;24897;53.514;10.482;2023-05-10T15:54:16;18.90;99.90
23683;DHT22;24897;53.514;10.482;2023-05-10T15:57:00;19.10;99.90
23683;DHT22;24897;53.514;10.482;2023-05-10T15:59:45;19.10;99.90
23683;DHT22;24897;53.514;10.482;2023-05-10T16:02:29;19.10;99.90
23683;DHT22;24897;53.514;10.482;2023-05-10T16:05:13;19.10;99.90
23683;DHT22;24897;53.514;10.482;2023-05-10T16:07:57;19.00;99.90
23683;DHT22;24897;53.514;10.482;2023-05-10T16:10:41;18.90;99.90
23683;DHT22;24897;53.514;10.482;2023-05-10T16:13:26;18.90;99.90
23683;DHT22;24897;53.514;10.482;2023-05-10T16:16:10;18.90;99.90
23683;DHT22;24897;53.514;10.482;2023-05-10T16:18:56;18.90;99.90
23683;DHT22;24897;53.514;10.482;2023-05-10T16:21:40;18.80;99.90
23683;DHT22;24897;53.514;10.482;2023-05-10T16:24:27;18.60;99.90
23683;DHT22;24897;53.514;10.482;2023-05-10T16:27:13;18.50;99.90
23683;DHT22;24897;53.514;10.482;2023-05-10T16:29:57;18.50;99.90
23683;DHT22;24897;53.514;10.482;2023-05-10T16:32:41;18.50;99.90
23683;DHT22;24897;53.514;10.482;2023-05-10T16:35:26;18.50;99.90
23683;DHT22;24897;53.514;10.482;2023-05-10T16:38:12;18.40;99.90
23683;DHT22;24897;53.514;10.482;2023-05-10T16:40:57;18.40;99.90
23683;DHT22;24897;53.514;10.482;2023-05-10T16:43:44;18.40;99.90
23683;DHT22;24897;53.514;10.482;2023-05-10T16:46:28;18.40;99.90
23683;DHT22;24897;53.514;10.482;2023-05-10T16:49:12;18.50;99.90
23683;DHT22;24897;53.514;10.482;2023-05-10T16:51:56;18.50;99.90
23683;DHT22;24897;53.514;10.482;2023-05-10T16:54:41;18.50;99.90
23683;DHT22;24897;53.514;10.482;2023-05-10T16:57:26;18.50;99.90
23683;DHT22;24897;53.514;10.482;2023-05-10T17:00:11;18.50;99.90
23683;DHT22;24897;53.514;10.482;2023-05-10T17:02:55;18.50;99.90
23683;DHT22;24897;53.514;10.482;2023-05-10T17:05:40;18.40;99.90
23683;DHT22;24897;53.514;10.482;2023-05-10T17:08:25;18.30;99.90
23683;DHT22;24897;53.514;10.482;2023-05-10T17:11:09;18.20;99.90
23683;DHT22;24897;53.514;10.482;2023-05-10T17:13:54;18.10;99.90
23683;DHT22;24897;53.514;10.482;2023-05-10T17:16:38;18.20;99.90
23683;DHT22;24897;53.514;10.482;2023-05-10T17:19:22;18.30;99.90
23683;DHT22;24897;53.514;10.482;2023-05-10T17:22:06;18.20;99.90
23683;DHT22;24897;53.514;10.482;2023-05-10T17:24:50;18.10;99.90
23683;DHT22;24897;53.514;10.482;2023-05-10T17:27:35;18.10;99.90
23683;DHT22;24897;53.514;10.482;2023-05-10T17:30:19;18.10;99.90
23683;DHT22;24897;53.514;10.482;2023-05-10T17:33:09;18.10;99.90
23683;DHT22;24897;53.514;10.482;2023-05-10T17:35:54;18.10;99.90
23683;DHT22;24897;53.514;10.482;2023-05-10T17:38:38;18.10;99.90
23683;DHT22;24897;53.514;10.482;2023-05-10T17:41:23;18.10;99.90